sensor_id;sensor_type;location;lat;lon;timestamp;P1;durP1;ratioP1;P2;durP2;ratioP2
44985;SDS011;30721;49.380;7.736;2024-03-22T00:00:30;2.20;;;1.90;;
44985;SDS011;30721;49.380;7.736;2024-03-22T00:02:55;2.60;;;2.00;;
44985;SDS011;30721;49.380;7.736;2024-03-22T00:05:20;2.83;;;2.35;;
44985;SDS011;30721;49.380;7.736;2024-03-22T00:07:47;3.45;;;2.13;;
44985;SDS011;30721;49.380;7.736;2024-03-22T00:10:12;5.10;;;2.10;;
44985;SDS011;30721;49.380;7.736;2024-03-22T00:12:39;2.95;;;2.28;;
44985;SDS011;30721;49.380;7.736;2024-03-22T00:15:04;3.45;;;2.35;;
44985;SDS011;30721;49.380;7.736;2024-03-22T00:17:30;4.30;;;2.50;;
44985;SDS011;30721;49.380;7.736;2024-03-22T00:19:56;5.25;;;2.55;;
44985;SDS011;30721;49.380;7.736;2024-03-22T00:22:21;4.70;;;1.98;;
44985;SDS011;30721;49.380;7.736;2024-03-22T00:24:47;2.95;;;1.90;;
44985;SDS011;30721;49.380;7.736;2024-03-22T00:27:12;4.78;;;2.00;;
44985;SDS011;30721;49.380;7.736;2024-03-22T00:29:38;2.75;;;2.10;;
44985;SDS011;30721;49.380;7.736;2024-03-22T00:32:03;3.63;;;2.28;;
44985;SDS011;30721;49.380;7.736;2024-03-22T00:34:29;3.75;;;3.03;;
44985;SDS011;30721;49.380;7.736;2024-03-22T00:36:55;4.60;;;2.20;;
44985;SDS011;30721;49.380;7.736;2024-03-22T00:39:20;2.70;;;2.00;;
44985;SDS011;30721;49.380;7.736;2024-03-22T00:41:45;2.60;;;2.13;;
44985;SDS011;30721;49.380;7.736;2024-03-22T00:44:11;3.10;;;2.15;;
44985;SDS011;30721;49.380;7.736;2024-03-22T00:46:36;3.03;;;2.00;;
44985;SDS011;30721;49.380;7.736;2024-03-22T00:49:02;3.17;;;2.20;;
44985;SDS011;30721;49.380;7.736;2024-03-22T00:51:27;4.10;;;2.13;;
44985;SDS011;30721;49.380;7.736;2024-03-22T00:53:53;3.17;;;2.30;;
44985;SDS011;30721;49.380;7.736;2024-03-22T00:56:18;6.38;;;2.63;;
44985;SDS011;30721;49.380;7.736;2024-03-22T00:58:43;5.00;;;2.60;;
44985;SDS011;30721;49.380;7.736;2024-03-22T01:01:09;3.45;;;2.15;;
44985;SDS011;30721;49.380;7.736;2024-03-22T01:03:34;2.50;;;2.10;;
44985;SDS011;30721;49.380;7.736;2024-03-22T01:05:59;3.63;;;2.30;;
44985;SDS011;30721;49.380;7.736;2024-03-22T01:08:25;3.90;;;2.67;;
44985;SDS011;30721;49.380;7.736;2024-03-22T01:10:50;5.25;;;2.30;;
44985;SDS011;30721;49.380;7.736;2024-03-22T01:13:16;4.45;;;2.03;;
44985;SDS011;30721;49.380;7.736;2024-03-22T01:15:41;3.97;;;2.00;;
44985;SDS011;30721;49.380;7.736;2024-03-22T01:18:07;4.68;;;2.53;;
44985;SDS011;30721;49.380;7.736;2024-03-22T01:20:32;3.63;;;2.53;;
44985;SDS011;30721;49.380;7.736;2024-03-22T01:22:59;3.20;;;2.20;;
44985;SDS011;30721;49.380;7.736;2024-03-22T01:25:24;4.47;;;2.35;;
44985;SDS011;30721;49.380;7.736;2024-03-22T01:27:50;5.90;;;2.40;;
44985;SDS011;30721;49.380;7.736;2024-03-22T01:30:15;3.40;;;2.40;;
44985;SDS011;30721;49.380;7.736;2024-03-22T01:32:41;6.05;;;3.42;;
44985;SDS011;30721;49.380;7.736;2024-03-22T01:35:06;5.40;;;3.40;;
44985;SDS011;30721;49.380;7.736;2024-03-22T01:37:33;4.28;;;3.17;;
44985;SDS011;30721;49.380;7.736;2024-03-22T01:39:58;4.43;;;3.17;;
44985;SDS011;30721;49.380;7.736;2024-03-22T01:42:24;3.92;;;2.92;;
44985;SDS011;30721;49.380;7.736;2024-03-22T01:44:49;4.07;;;2.80;;
44985;SDS011;30721;49.380;7.736;2024-03-22T01:47:15;4.20;;;3.10;;
44985;SDS011;30721;49.380;7.736;2024-03-22T01:49:42;3.50;;;3.20;;
44985;SDS011;30721;49.380;7.736;2024-03-22T01:52:08;4.75;;;3.15;;
44985;SDS011;30721;49.380;7.736;2024-03-22T01:54:33;4.53;;;3.08;;
44985;SDS011;30721;49.380;7.736;2024-03-22T01:56:59;5.13;;;2.88;;
44985;SDS011;30721;49.380;7.736;2024-03-22T01:59:24;4.85;;;3.13;;
44985;SDS011;30721;49.380;7.736;2024-03-22T02:01:50;3.50;;;3.08;;
44985;SDS011;30721;49.380;7.736;2024-03-22T02:04:16;5.28;;;3.50;;
44985;SDS011;30721;49.380;7.736;2024-03-22T02:06:41;5.25;;;3.30;;
44985;SDS011;30721;49.380;7.736;2024-03-22T02:09:06;4.60;;;3.22;;
44985;SDS011;30721;49.380;7.736;2024-03-22T02:11:34;4.57;;;3.05;;
44985;SDS011;30721;49.380;7.736;2024-03-22T02:14:01;4.50;;;3.50;;
44985;SDS011;30721;49.380;7.736;2024-03-22T02:16:26;4.72;;;3.38;;
44985;SDS011;30721;49.380;7.736;2024-03-22T02:18:52;5.30;;;4.28;;
44985;SDS011;30721;49.380;7.736;2024-03-22T02:21:18;5.50;;;3.75;;
44985;SDS011;30721;49.380;7.736;2024-03-22T02:23:43;4.95;;;3.53;;
44985;SDS011;30721;49.380;7.736;2024-03-22T02:26:09;6.68;;;3.97;;
44985;SDS011;30721;49.380;7.736;2024-03-22T02:28:34;7.03;;;4.22;;
44985;SDS011;30721;49.380;7.736;2024-03-22T02:31:01;6.53;;;4.03;;
44985;SDS011;30721;49.380;7.736;2024-03-22T02:33:27;4.80;;;3.22;;
44985;SDS011;30721;49.380;7.736;2024-03-22T02:35:53;3.40;;;2.67;;
44985;SDS011;30721;49.380;7.736;2024-03-22T02:38:18;3.60;;;2.67;;
44985;SDS011;30721;49.380;7.736;2024-03-22T02:40:44;3.75;;;2.78;;
44985;SDS011;30721;49.380;7.736;2024-03-22T02:43:10;3.65;;;2.38;;
44985;SDS011;30721;49.380;7.736;2024-03-22T02:45:36;4.38;;;2.83;;
44985;SDS011;30721;49.380;7.736;2024-03-22T02:48:01;3.50;;;2.70;;
44985;SDS011;30721;49.380;7.736;2024-03-22T02:50:31;4.40;;;3.35;;
44985;SDS011;30721;49.380;7.736;2024-03-22T02:52:58;4.72;;;3.75;;
44985;SDS011;30721;49.380;7.736;2024-03-22T02:55:23;5.40;;;3.80;;
44985;SDS011;30721;49.380;7.736;2024-03-22T02:57:49;5.95;;;3.67;;
44985;SDS011;30721;49.380;7.736;2024-03-22T03:00:15;6.03;;;3.50;;
44985;SDS011;30721;49.380;7.736;2024-03-22T03:02:40;4.10;;;2.72;;
44985;SDS011;30721;49.380;7.736;2024-03-22T03:05:05;4.75;;;3.00;;
44985;SDS011;30721;49.380;7.736;2024-03-22T03:07:31;4.50;;;3.03;;
44985;SDS011;30721;49.380;7.736;2024-03-22T03:09:57;4.30;;;2.70;;
44985;SDS011;30721;49.380;7.736;2024-03-22T03:12:25;4.65;;;3.05;;
44985;SDS011;30721;49.380;7.736;2024-03-22T03:14:50;5.43;;;2.80;;
44985;SDS011;30721;49.380;7.736;2024-03-22T03:17:15;3.88;;;2.60;;
44985;SDS011;30721;49.380;7.736;2024-03-22T03:19:41;3.97;;;2.70;;
44985;SDS011;30721;49.380;7.736;2024-03-22T03:22:06;2.70;;;2.22;;
44985;SDS011;30721;49.380;7.736;2024-03-22T03:24:31;4.53;;;2.80;;
44985;SDS011;30721;49.380;7.736;2024-03-22T03:26:57;3.00;;;2.70;;
44985;SDS011;30721;49.380;7.736;2024-03-22T03:29:22;3.35;;;2.70;;
44985;SDS011;30721;49.380;7.736;2024-03-22T03:31:48;3.55;;;2.70;;
44985;SDS011;30721;49.380;7.736;2024-03-22T03:34:14;4.75;;;3.13;;
44985;SDS011;30721;49.380;7.736;2024-03-22T03:36:39;4.20;;;3.03;;
44985;SDS011;30721;49.380;7.736;2024-03-22T03:39:05;4.78;;;2.80;;
44985;SDS011;30721;49.380;7.736;2024-03-22T03:41:30;3.65;;;2.38;;
44985;SDS011;30721;49.380;7.736;2024-03-22T03:43:55;5.47;;;2.95;;
44985;SDS011;30721;49.380;7.736;2024-03-22T03:46:21;4.43;;;3.22;;
44985;SDS011;30721;49.380;7.736;2024-03-22T03:48:46;8.90;;;4.10;;
44985;SDS011;30721;49.380;7.736;2024-03-22T03:51:12;6.03;;;3.47;;
44985;SDS011;30721;49.380;7.736;2024-03-22T03:53:37;5.18;;;3.30;;
44985;SDS011;30721;49.380;7.736;2024-03-22T03:56:03;4.47;;;3.45;;
44985;SDS011;30721;49.380;7.736;2024-03-22T03:58:28;5.32;;;3.40;;
44985;SDS011;30721;49.380;7.736;2024-03-22T04:00:54;4.85;;;3.20;;
44985;SDS011;30721;49.380;7.736;2024-03-22T04:03:19;4.30;;;3.40;;
44985;SDS011;30721;49.380;7.736;2024-03-22T04:05:44;5.03;;;3.42;;
44985;SDS011;30721;49.380;7.736;2024-03-22T04:08:10;3.63;;;3.00;;
44985;SDS011;30721;49.380;7.736;2024-03-22T04:10:35;4.47;;;3.22;;
44985;SDS011;30721;49.380;7.736;2024-03-22T04:13:00;5.47;;;3.83;;
44985;SDS011;30721;49.380;7.736;2024-03-22T04:15:26;4.65;;;3.55;;
44985;SDS011;30721;49.380;7.736;2024-03-22T04:17:51;5.32;;;3.90;;
44985;SDS011;30721;49.380;7.736;2024-03-22T04:20:17;5.00;;;3.58;;
44985;SDS011;30721;49.380;7.736;2024-03-22T04:22:42;8.00;;;4.35;;
44985;SDS011;30721;49.380;7.736;2024-03-22T04:25:08;3.97;;;3.40;;
44985;SDS011;30721;49.380;7.736;2024-03-22T04:27:36;6.10;;;3.45;;
44985;SDS011;30721;49.380;7.736;2024-03-22T04:30:02;5.68;;;3.13;;
44985;SDS011;30721;49.380;7.736;2024-03-22T04:32:28;6.38;;;3.90;;
44985;SDS011;30721;49.380;7.736;2024-03-22T04:34:53;6.47;;;4.18;;
44985;SDS011;30721;49.380;7.736;2024-03-22T04:37:20;4.97;;;3.83;;
44985;SDS011;30721;49.380;7.736;2024-03-22T04:39:45;5.65;;;3.75;;
44985;SDS011;30721;49.380;7.736;2024-03-22T04:42:11;5.45;;;3.45;;
44985;SDS011;30721;49.380;7.736;2024-03-22T04:44:36;5.05;;;3.45;;
44985;SDS011;30721;49.380;7.736;2024-03-22T04:47:01;5.18;;;3.58;;
44985;SDS011;30721;49.380;7.736;2024-03-22T04:49:27;4.95;;;3.63;;
44985;SDS011;30721;49.380;7.736;2024-03-22T04:51:52;5.55;;;3.88;;
44985;SDS011;30721;49.380;7.736;2024-03-22T04:54:17;4.90;;;3.90;;
44985;SDS011;30721;49.380;7.736;2024-03-22T04:56:43;6.18;;;4.07;;
44985;SDS011;30721;49.380;7.736;2024-03-22T04:59:08;5.25;;;3.50;;
44985;SDS011;30721;49.380;7.736;2024-03-22T05:01:33;4.85;;;3.50;;
44985;SDS011;30721;49.380;7.736;2024-03-22T05:04:01;5.13;;;4.03;;
44985;SDS011;30721;49.380;7.736;2024-03-22T05:06:26;5.18;;;3.22;;
44985;SDS011;30721;49.380;7.736;2024-03-22T05:08:52;5.82;;;3.42;;
44985;SDS011;30721;49.380;7.736;2024-03-22T05:11:17;4.63;;;3.22;;
44985;SDS011;30721;49.380;7.736;2024-03-22T05:13:43;4.70;;;3.25;;
44985;SDS011;30721;49.380;7.736;2024-03-22T05:16:08;4.50;;;3.50;;
44985;SDS011;30721;49.380;7.736;2024-03-22T05:18:33;5.20;;;3.67;;
44985;SDS011;30721;49.380;7.736;2024-03-22T05:20:59;5.88;;;3.28;;
44985;SDS011;30721;49.380;7.736;2024-03-22T05:23:24;4.35;;;3.33;;
44985;SDS011;30721;49.380;7.736;2024-03-22T05:25:49;5.70;;;3.42;;
44985;SDS011;30721;49.380;7.736;2024-03-22T05:28:15;4.65;;;3.38;;
44985;SDS011;30721;49.380;7.736;2024-03-22T05:30:40;4.63;;;3.45;;
44985;SDS011;30721;49.380;7.736;2024-03-22T05:33:06;4.38;;;3.22;;
44985;SDS011;30721;49.380;7.736;2024-03-22T05:35:31;3.40;;;2.75;;
44985;SDS011;30721;49.380;7.736;2024-03-22T05:37:56;5.20;;;3.75;;
44985;SDS011;30721;49.380;7.736;2024-03-22T05:40:22;7.25;;;4.60;;
44985;SDS011;30721;49.380;7.736;2024-03-22T05:42:48;6.07;;;3.78;;
44985;SDS011;30721;49.380;7.736;2024-03-22T05:45:13;6.45;;;3.85;;
44985;SDS011;30721;49.380;7.736;2024-03-22T05:47:39;5.53;;;3.70;;
44985;SDS011;30721;49.380;7.736;2024-03-22T05:50:04;5.50;;;3.60;;
44985;SDS011;30721;49.380;7.736;2024-03-22T05:52:33;5.15;;;3.97;;
44985;SDS011;30721;49.380;7.736;2024-03-22T05:54:58;4.93;;;3.72;;
44985;SDS011;30721;49.380;7.736;2024-03-22T05:57:24;5.40;;;4.13;;
44985;SDS011;30721;49.380;7.736;2024-03-22T05:59:49;6.80;;;4.00;;
44985;SDS011;30721;49.380;7.736;2024-03-22T06:02:14;7.22;;;4.30;;
44985;SDS011;30721;49.380;7.736;2024-03-22T06:04:41;5.30;;;4.00;;
44985;SDS011;30721;49.380;7.736;2024-03-22T06:07:06;5.30;;;3.92;;
44985;SDS011;30721;49.380;7.736;2024-03-22T06:09:32;8.15;;;5.03;;
44985;SDS011;30721;49.380;7.736;2024-03-22T06:12:10;7.05;;;5.75;;
44985;SDS011;30721;49.380;7.736;2024-03-22T06:14:36;8.75;;;5.57;;
44985;SDS011;30721;49.380;7.736;2024-03-22T06:17:03;7.90;;;4.80;;
44985;SDS011;30721;49.380;7.736;2024-03-22T06:19:29;7.97;;;5.05;;
44985;SDS011;30721;49.380;7.736;2024-03-22T06:21:54;7.30;;;4.93;;
44985;SDS011;30721;49.380;7.736;2024-03-22T06:24:19;8.45;;;5.60;;
44985;SDS011;30721;49.380;7.736;2024-03-22T06:26:45;10.35;;;5.47;;
44985;SDS011;30721;49.380;7.736;2024-03-22T06:29:10;7.40;;;5.10;;
44985;SDS011;30721;49.380;7.736;2024-03-22T06:31:35;8.35;;;5.28;;
44985;SDS011;30721;49.380;7.736;2024-03-22T06:34:01;9.13;;;6.05;;
44985;SDS011;30721;49.380;7.736;2024-03-22T06:36:30;8.45;;;5.25;;
44985;SDS011;30721;49.380;7.736;2024-03-22T06:38:57;7.38;;;6.03;;
44985;SDS011;30721;49.380;7.736;2024-03-22T06:41:22;9.85;;;7.07;;
44985;SDS011;30721;49.380;7.736;2024-03-22T06:43:48;9.43;;;6.07;;
44985;SDS011;30721;49.380;7.736;2024-03-22T06:46:13;8.90;;;5.93;;
44985;SDS011;30721;49.380;7.736;2024-03-22T06:48:38;8.32;;;5.38;;
44985;SDS011;30721;49.380;7.736;2024-03-22T06:51:04;7.95;;;5.57;;
44985;SDS011;30721;49.380;7.736;2024-03-22T06:53:29;8.65;;;5.40;;
44985;SDS011;30721;49.380;7.736;2024-03-22T06:55:54;8.80;;;5.38;;
44985;SDS011;30721;49.380;7.736;2024-03-22T06:58:20;7.20;;;5.30;;
44985;SDS011;30721;49.380;7.736;2024-03-22T07:00:46;8.90;;;5.80;;
44985;SDS011;30721;49.380;7.736;2024-03-22T07:03:11;7.95;;;5.22;;
44985;SDS011;30721;49.380;7.736;2024-03-22T07:05:36;8.80;;;6.20;;
44985;SDS011;30721;49.380;7.736;2024-03-22T07:08:02;8.45;;;5.47;;
44985;SDS011;30721;49.380;7.736;2024-03-22T07:10:27;7.80;;;5.75;;
44985;SDS011;30721;49.380;7.736;2024-03-22T07:12:53;9.55;;;5.80;;
44985;SDS011;30721;49.380;7.736;2024-03-22T07:15:20;6.75;;;4.88;;
44985;SDS011;30721;49.380;7.736;2024-03-22T07:17:47;8.52;;;5.57;;
44985;SDS011;30721;49.380;7.736;2024-03-22T07:20:12;8.23;;;5.65;;
44985;SDS011;30721;49.380;7.736;2024-03-22T07:22:37;7.57;;;5.60;;
44985;SDS011;30721;49.380;7.736;2024-03-22T07:25:03;7.95;;;5.10;;
44985;SDS011;30721;49.380;7.736;2024-03-22T07:27:32;9.95;;;4.75;;
44985;SDS011;30721;49.380;7.736;2024-03-22T07:29:57;7.18;;;4.82;;
44985;SDS011;30721;49.380;7.736;2024-03-22T07:32:22;6.72;;;4.47;;
44985;SDS011;30721;49.380;7.736;2024-03-22T07:34:48;8.85;;;4.95;;
44985;SDS011;30721;49.380;7.736;2024-03-22T07:37:13;5.78;;;4.50;;
44985;SDS011;30721;49.380;7.736;2024-03-22T07:39:39;6.93;;;4.93;;
44985;SDS011;30721;49.380;7.736;2024-03-22T07:42:04;5.97;;;4.75;;
44985;SDS011;30721;49.380;7.736;2024-03-22T07:44:30;7.40;;;5.15;;
44985;SDS011;30721;49.380;7.736;2024-03-22T07:46:55;8.25;;;4.97;;
44985;SDS011;30721;49.380;7.736;2024-03-22T07:49:20;7.15;;;4.40;;
44985;SDS011;30721;49.380;7.736;2024-03-22T07:51:46;6.15;;;4.30;;
44985;SDS011;30721;49.380;7.736;2024-03-22T07:54:11;5.65;;;4.47;;
44985;SDS011;30721;49.380;7.736;2024-03-22T07:56:37;7.35;;;4.72;;
44985;SDS011;30721;49.380;7.736;2024-03-22T07:59:02;7.60;;;3.92;;
44985;SDS011;30721;49.380;7.736;2024-03-22T08:01:28;6.50;;;4.50;;
44985;SDS011;30721;49.380;7.736;2024-03-22T08:03:53;7.20;;;4.70;;
44985;SDS011;30721;49.380;7.736;2024-03-22T08:06:19;7.25;;;4.57;;
44985;SDS011;30721;49.380;7.736;2024-03-22T08:08:44;6.10;;;3.83;;
44985;SDS011;30721;49.380;7.736;2024-03-22T08:11:10;6.75;;;4.55;;
44985;SDS011;30721;49.380;7.736;2024-03-22T08:13:35;5.93;;;4.30;;
44985;SDS011;30721;49.380;7.736;2024-03-22T08:16:01;7.80;;;4.95;;
44985;SDS011;30721;49.380;7.736;2024-03-22T08:18:28;7.43;;;4.95;;
44985;SDS011;30721;49.380;7.736;2024-03-22T08:20:54;6.78;;;4.63;;
44985;SDS011;30721;49.380;7.736;2024-03-22T08:23:19;6.70;;;4.90;;
44985;SDS011;30721;49.380;7.736;2024-03-22T08:25:45;5.38;;;3.83;;
44985;SDS011;30721;49.380;7.736;2024-03-22T08:28:11;5.78;;;4.38;;
44985;SDS011;30721;49.380;7.736;2024-03-22T08:30:39;5.40;;;3.97;;
44985;SDS011;30721;49.380;7.736;2024-03-22T08:33:04;6.43;;;4.13;;
44985;SDS011;30721;49.380;7.736;2024-03-22T08:35:30;6.90;;;4.03;;
44985;SDS011;30721;49.380;7.736;2024-03-22T08:37:56;5.38;;;4.07;;
44985;SDS011;30721;49.380;7.736;2024-03-22T08:40:21;7.40;;;4.32;;
44985;SDS011;30721;49.380;7.736;2024-03-22T08:42:48;5.68;;;4.10;;
44985;SDS011;30721;49.380;7.736;2024-03-22T08:45:13;5.55;;;3.85;;
44985;SDS011;30721;49.380;7.736;2024-03-22T08:47:39;5.10;;;3.45;;
44985;SDS011;30721;49.380;7.736;2024-03-22T08:50:05;4.78;;;3.47;;
44985;SDS011;30721;49.380;7.736;2024-03-22T08:52:31;5.15;;;3.50;;
44985;SDS011;30721;49.380;7.736;2024-03-22T08:54:59;4.88;;;3.95;;
44985;SDS011;30721;49.380;7.736;2024-03-22T08:57:24;7.28;;;4.40;;
44985;SDS011;30721;49.380;7.736;2024-03-22T08:59:50;4.88;;;3.47;;
44985;SDS011;30721;49.380;7.736;2024-03-22T09:02:15;4.95;;;3.40;;
44985;SDS011;30721;49.380;7.736;2024-03-22T09:04:41;5.40;;;3.50;;
44985;SDS011;30721;49.380;7.736;2024-03-22T09:07:07;5.05;;;3.53;;
44985;SDS011;30721;49.380;7.736;2024-03-22T09:09:32;4.60;;;3.08;;
44985;SDS011;30721;49.380;7.736;2024-03-22T09:11:57;4.45;;;3.42;;
44985;SDS011;30721;49.380;7.736;2024-03-22T09:14:23;5.30;;;3.60;;
44985;SDS011;30721;49.380;7.736;2024-03-22T09:16:48;5.43;;;3.75;;
44985;SDS011;30721;49.380;7.736;2024-03-22T09:19:14;6.60;;;3.83;;
44985;SDS011;30721;49.380;7.736;2024-03-22T09:21:39;4.68;;;3.60;;
44985;SDS011;30721;49.380;7.736;2024-03-22T09:24:04;6.60;;;4.53;;
44985;SDS011;30721;49.380;7.736;2024-03-22T09:26:30;5.85;;;4.80;;
44985;SDS011;30721;49.380;7.736;2024-03-22T09:28:56;7.88;;;4.85;;
44985;SDS011;30721;49.380;7.736;2024-03-22T09:31:22;6.28;;;4.60;;
44985;SDS011;30721;49.380;7.736;2024-03-22T09:33:47;8.30;;;5.15;;
44985;SDS011;30721;49.380;7.736;2024-03-22T09:36:12;8.05;;;5.18;;
44985;SDS011;30721;49.380;7.736;2024-03-22T09:38:38;6.30;;;4.63;;
44985;SDS011;30721;49.380;7.736;2024-03-22T09:41:03;5.85;;;4.00;;
44985;SDS011;30721;49.380;7.736;2024-03-22T09:43:30;6.32;;;4.53;;
44985;SDS011;30721;49.380;7.736;2024-03-22T09:45:55;7.50;;;5.10;;
44985;SDS011;30721;49.380;7.736;2024-03-22T09:48:21;9.57;;;6.15;;
44985;SDS011;30721;49.380;7.736;2024-03-22T09:50:48;7.32;;;5.82;;
44985;SDS011;30721;49.380;7.736;2024-03-22T09:53:15;8.50;;;5.85;;
44985;SDS011;30721;49.380;7.736;2024-03-22T09:55:43;6.72;;;5.28;;
44985;SDS011;30721;49.380;7.736;2024-03-22T09:58:10;8.20;;;5.68;;
44985;SDS011;30721;49.380;7.736;2024-03-22T10:00:35;9.27;;;6.15;;
44985;SDS011;30721;49.380;7.736;2024-03-22T10:03:01;6.40;;;5.75;;
44985;SDS011;30721;49.380;7.736;2024-03-22T10:05:28;8.32;;;5.28;;
44985;SDS011;30721;49.380;7.736;2024-03-22T10:07:54;7.85;;;5.90;;
44985;SDS011;30721;49.380;7.736;2024-03-22T10:10:20;9.25;;;5.82;;
44985;SDS011;30721;49.380;7.736;2024-03-22T10:12:46;9.10;;;6.03;;
44985;SDS011;30721;49.380;7.736;2024-03-22T10:15:11;7.93;;;5.45;;
44985;SDS011;30721;49.380;7.736;2024-03-22T10:17:38;7.25;;;5.68;;
44985;SDS011;30721;49.380;7.736;2024-03-22T10:20:05;7.03;;;5.25;;
44985;SDS011;30721;49.380;7.736;2024-03-22T10:22:37;6.90;;;5.97;;
44985;SDS011;30721;49.380;7.736;2024-03-22T10:25:04;7.60;;;6.28;;
44985;SDS011;30721;49.380;7.736;2024-03-22T10:27:31;7.75;;;5.03;;
44985;SDS011;30721;49.380;7.736;2024-03-22T10:29:57;8.00;;;5.20;;
44985;SDS011;30721;49.380;7.736;2024-03-22T10:32:22;8.35;;;5.50;;
44985;SDS011;30721;49.380;7.736;2024-03-22T10:34:48;7.05;;;5.50;;
44985;SDS011;30721;49.380;7.736;2024-03-22T10:37:15;7.07;;;5.45;;
44985;SDS011;30721;49.380;7.736;2024-03-22T10:39:40;6.05;;;4.70;;
44985;SDS011;30721;49.380;7.736;2024-03-22T10:42:07;5.20;;;4.70;;
44985;SDS011;30721;49.380;7.736;2024-03-22T10:44:32;4.90;;;4.28;;
44985;SDS011;30721;49.380;7.736;2024-03-22T10:46:58;5.00;;;3.97;;
44985;SDS011;30721;49.380;7.736;2024-03-22T10:49:26;6.22;;;4.90;;
44985;SDS011;30721;49.380;7.736;2024-03-22T10:51:58;6.13;;;5.05;;
44985;SDS011;30721;49.380;7.736;2024-03-22T10:54:28;6.40;;;5.25;;
44985;SDS011;30721;49.380;7.736;2024-03-22T10:56:57;6.75;;;5.13;;
44985;SDS011;30721;49.380;7.736;2024-03-22T10:59:23;8.55;;;6.10;;
44985;SDS011;30721;49.380;7.736;2024-03-22T11:01:49;11.20;;;6.55;;
44985;SDS011;30721;49.380;7.736;2024-03-22T11:04:15;8.80;;;6.78;;
44985;SDS011;30721;49.380;7.736;2024-03-22T11:06:47;9.32;;;7.32;;
44985;SDS011;30721;49.380;7.736;2024-03-22T11:09:18;9.55;;;7.25;;
44985;SDS011;30721;49.380;7.736;2024-03-22T11:11:46;13.60;;;9.32;;
44985;SDS011;30721;49.380;7.736;2024-03-22T11:14:12;10.32;;;7.65;;
44985;SDS011;30721;49.380;7.736;2024-03-22T11:16:37;10.60;;;7.97;;
44985;SDS011;30721;49.380;7.736;2024-03-22T11:19:03;10.10;;;8.65;;
44985;SDS011;30721;49.380;7.736;2024-03-22T11:21:32;8.57;;;7.45;;
44985;SDS011;30721;49.380;7.736;2024-03-22T11:24:00;10.75;;;7.80;;
44985;SDS011;30721;49.380;7.736;2024-03-22T11:26:28;10.82;;;8.52;;
44985;SDS011;30721;49.380;7.736;2024-03-22T11:28:54;11.45;;;9.13;;
44985;SDS011;30721;49.380;7.736;2024-03-22T11:31:19;11.35;;;8.98;;
44985;SDS011;30721;49.380;7.736;2024-03-22T11:33:47;12.23;;;9.18;;
44985;SDS011;30721;49.380;7.736;2024-03-22T11:36:12;13.80;;;9.93;;
44985;SDS011;30721;49.380;7.736;2024-03-22T11:38:38;12.23;;;8.82;;
44985;SDS011;30721;49.380;7.736;2024-03-22T11:41:04;11.45;;;9.88;;
44985;SDS011;30721;49.380;7.736;2024-03-22T11:43:30;13.43;;;10.35;;
44985;SDS011;30721;49.380;7.736;2024-03-22T11:45:55;13.40;;;10.65;;
44985;SDS011;30721;49.380;7.736;2024-03-22T11:48:21;14.35;;;10.95;;
44985;SDS011;30721;49.380;7.736;2024-03-22T11:50:47;12.70;;;9.82;;
44985;SDS011;30721;49.380;7.736;2024-03-22T11:53:12;13.52;;;10.00;;
44985;SDS011;30721;49.380;7.736;2024-03-22T11:55:38;12.52;;;9.57;;
44985;SDS011;30721;49.380;7.736;2024-03-22T11:58:03;15.15;;;10.70;;
44985;SDS011;30721;49.380;7.736;2024-03-22T12:00:30;16.00;;;10.77;;
44985;SDS011;30721;49.380;7.736;2024-03-22T12:02:56;13.75;;;10.00;;
44985;SDS011;30721;49.380;7.736;2024-03-22T12:05:22;13.70;;;10.55;;
44985;SDS011;30721;49.380;7.736;2024-03-22T12:07:47;12.80;;;10.18;;
44985;SDS011;30721;49.380;7.736;2024-03-22T12:10:13;16.05;;;13.57;;
44985;SDS011;30721;49.380;7.736;2024-03-22T12:12:38;15.48;;;11.68;;
44985;SDS011;30721;49.380;7.736;2024-03-22T12:15:04;16.70;;;10.95;;
44985;SDS011;30721;49.380;7.736;2024-03-22T12:17:30;15.88;;;11.07;;
44985;SDS011;30721;49.380;7.736;2024-03-22T12:19:55;13.73;;;10.60;;
44985;SDS011;30721;49.380;7.736;2024-03-22T12:22:21;14.82;;;10.95;;
44985;SDS011;30721;49.380;7.736;2024-03-22T12:24:47;13.38;;;11.02;;
44985;SDS011;30721;49.380;7.736;2024-03-22T12:27:12;14.93;;;11.75;;
44985;SDS011;30721;49.380;7.736;2024-03-22T12:29:38;16.27;;;12.00;;
44985;SDS011;30721;49.380;7.736;2024-03-22T12:32:03;17.95;;;11.95;;
44985;SDS011;30721;49.380;7.736;2024-03-22T12:34:29;14.43;;;11.05;;
44985;SDS011;30721;49.380;7.736;2024-03-22T12:36:55;14.27;;;10.45;;
44985;SDS011;30721;49.380;7.736;2024-03-22T12:39:21;15.80;;;12.38;;
44985;SDS011;30721;49.380;7.736;2024-03-22T12:41:46;16.80;;;13.57;;
44985;SDS011;30721;49.380;7.736;2024-03-22T12:44:11;18.20;;;12.15;;
44985;SDS011;30721;49.380;7.736;2024-03-22T12:46:37;17.40;;;13.02;;
44985;SDS011;30721;49.380;7.736;2024-03-22T12:49:02;20.02;;;13.30;;
44985;SDS011;30721;49.380;7.736;2024-03-22T12:51:27;18.70;;;13.15;;
44985;SDS011;30721;49.380;7.736;2024-03-22T12:53:53;16.23;;;13.05;;
44985;SDS011;30721;49.380;7.736;2024-03-22T12:56:18;21.85;;;14.85;;
44985;SDS011;30721;49.380;7.736;2024-03-22T12:58:44;18.33;;;14.60;;
44985;SDS011;30721;49.380;7.736;2024-03-22T13:01:09;20.05;;;14.18;;
44985;SDS011;30721;49.380;7.736;2024-03-22T13:03:36;19.50;;;13.27;;
44985;SDS011;30721;49.380;7.736;2024-03-22T13:06:02;16.00;;;12.18;;
44985;SDS011;30721;49.380;7.736;2024-03-22T13:08:28;16.67;;;12.80;;
44985;SDS011;30721;49.380;7.736;2024-03-22T13:10:53;16.58;;;12.43;;
44985;SDS011;30721;49.380;7.736;2024-03-22T13:13:19;17.95;;;12.73;;
44985;SDS011;30721;49.380;7.736;2024-03-22T13:15:44;15.98;;;12.13;;
44985;SDS011;30721;49.380;7.736;2024-03-22T13:18:12;17.50;;;13.73;;
44985;SDS011;30721;49.380;7.736;2024-03-22T13:20:37;16.02;;;12.65;;
44985;SDS011;30721;49.380;7.736;2024-03-22T13:23:03;16.50;;;12.55;;
44985;SDS011;30721;49.380;7.736;2024-03-22T13:25:29;16.63;;;12.00;;
44985;SDS011;30721;49.380;7.736;2024-03-22T13:27:54;15.35;;;12.80;;
44985;SDS011;30721;49.380;7.736;2024-03-22T13:30:20;15.23;;;11.80;;
44985;SDS011;30721;49.380;7.736;2024-03-22T13:32:45;14.82;;;11.55;;
44985;SDS011;30721;49.380;7.736;2024-03-22T13:35:11;12.93;;;10.27;;
44985;SDS011;30721;49.380;7.736;2024-03-22T13:37:36;10.75;;;9.18;;
44985;SDS011;30721;49.380;7.736;2024-03-22T13:40:02;13.63;;;11.65;;
44985;SDS011;30721;49.380;7.736;2024-03-22T13:42:27;13.50;;;10.35;;
44985;SDS011;30721;49.380;7.736;2024-03-22T13:44:53;13.27;;;9.77;;
44985;SDS011;30721;49.380;7.736;2024-03-22T13:47:18;12.32;;;9.45;;
44985;SDS011;30721;49.380;7.736;2024-03-22T13:49:44;12.50;;;10.13;;
44985;SDS011;30721;49.380;7.736;2024-03-22T13:52:12;13.02;;;10.13;;
44985;SDS011;30721;49.380;7.736;2024-03-22T13:54:38;13.20;;;10.23;;
44985;SDS011;30721;49.380;7.736;2024-03-22T13:57:03;12.70;;;9.55;;
44985;SDS011;30721;49.380;7.736;2024-03-22T13:59:29;14.32;;;9.90;;
44985;SDS011;30721;49.380;7.736;2024-03-22T14:01:55;11.60;;;9.43;;
44985;SDS011;30721;49.380;7.736;2024-03-22T14:04:21;12.93;;;9.68;;
44985;SDS011;30721;49.380;7.736;2024-03-22T14:06:48;12.98;;;10.43;;
44985;SDS011;30721;49.380;7.736;2024-03-22T14:09:13;13.48;;;9.95;;
44985;SDS011;30721;49.380;7.736;2024-03-22T14:11:39;11.68;;;9.98;;
44985;SDS011;30721;49.380;7.736;2024-03-22T14:14:05;13.73;;;10.00;;
44985;SDS011;30721;49.380;7.736;2024-03-22T14:16:31;14.77;;;9.60;;
44985;SDS011;30721;49.380;7.736;2024-03-22T14:18:57;11.77;;;10.45;;
44985;SDS011;30721;49.380;7.736;2024-03-22T14:21:22;13.02;;;10.60;;
44985;SDS011;30721;49.380;7.736;2024-03-22T14:23:48;12.40;;;9.25;;
44985;SDS011;30721;49.380;7.736;2024-03-22T14:26:15;11.57;;;9.15;;
44985;SDS011;30721;49.380;7.736;2024-03-22T14:28:41;12.70;;;9.55;;
44985;SDS011;30721;49.380;7.736;2024-03-22T14:31:07;10.73;;;9.43;;
44985;SDS011;30721;49.380;7.736;2024-03-22T14:33:34;12.18;;;9.90;;